createdAt,value
2017-11-08T00:01:58.376Z,100408.96
2017-11-08T00:04:25.836Z,100410.68
2017-11-08T00:06:56.145Z,100410.32
2017-11-08T00:09:23.614Z,100409.05
2017-11-08T00:11:51.179Z,100414.32
2017-11-08T00:14:18.673Z,100417.36
2017-11-08T00:16:46.141Z,100420.76
2017-11-08T00:19:13.626Z,100415.84
2017-11-08T00:21:45.443Z,100421.98
2017-11-08T00:24:12.925Z,100417.11
2017-11-08T00:26:40.412Z,100422.83
2017-11-08T00:29:07.897Z,100426.39
2017-11-08T00:31:35.352Z,100425.00
2017-11-08T00:34:02.849Z,100422.33
2017-11-08T00:36:30.311Z,100427.26
2017-11-08T00:38:57.804Z,100430.34
2017-11-08T00:41:25.282Z,100432.98
2017-11-08T00:43:52.768Z,100426.20
2017-11-08T00:46:20.232Z,100423.59
2017-11-08T00:48:47.718Z,100424.95
2017-11-08T00:51:15.188Z,100420.65
2017-11-08T00:53:42.645Z,100426.25
2017-11-08T00:56:10.124Z,100418.04
2017-11-08T00:58:37.593Z,100422.92
2017-11-08T01:01:05.069Z,100419.56
2017-11-08T01:03:32.529Z,100421.50
2017-11-08T01:06:00.029Z,100421.13
2017-11-08T01:08:27.484Z,100430.47
2017-11-08T01:10:54.978Z,100425.31
2017-11-08T01:13:22.449Z,100423.97
2017-11-08T01:15:49.973Z,100422.91
2017-11-08T01:18:17.453Z,100421.57
2017-11-08T01:20:44.913Z,100427.31
2017-11-08T01:23:12.380Z,100423.27
2017-11-08T01:25:39.879Z,100424.41
2017-11-08T01:28:07.347Z,100416.83
2017-11-08T01:30:34.815Z,100419.08
2017-11-08T01:33:02.412Z,100414.67
2017-11-08T01:35:29.898Z,100406.37
2017-11-08T01:37:57.385Z,100407.69
2017-11-08T01:40:24.872Z,100402.39
2017-11-08T01:42:52.432Z,100412.11
2017-11-08T01:45:20.001Z,100410.50
2017-11-08T01:47:47.475Z,100413.45
2017-11-08T01:50:14.924Z,100411.09
2017-11-08T01:52:42.476Z,100411.84
2017-11-08T01:55:10.019Z,100406.59
2017-11-08T01:57:37.516Z,100412.36
2017-11-08T02:00:04.997Z,100421.79
2017-11-08T02:02:32.457Z,100426.08
2017-11-08T02:04:59.954Z,100417.67
2017-11-08T02:07:27.421Z,100419.92
2017-11-08T02:09:54.890Z,100408.87
2017-11-08T02:12:22.382Z,100411.95
2017-11-08T02:14:55.548Z,100406.20
2017-11-08T02:17:23.078Z,100403.99
2017-11-08T02:19:50.557Z,100412.77
2017-11-08T02:22:18.017Z,100401.33
2017-11-08T02:24:48.212Z,100397.63
2017-11-08T02:27:17.552Z,100396.41
2017-11-08T02:29:45.060Z,100395.40
2017-11-08T02:32:15.385Z,100394.05
2017-11-08T02:34:42.907Z,100395.73
2017-11-08T02:37:10.372Z,100385.27
2017-11-08T02:39:37.881Z,100382.63
2017-11-08T02:42:06.139Z,100382.40
2017-11-08T02:44:33.609Z,100377.07
2017-11-08T02:47:01.089Z,100381.56
2017-11-08T02:49:28.603Z,100380.29
2017-11-08T02:51:56.172Z,100383.33
2017-11-08T02:54:23.624Z,100382.15
2017-11-08T02:56:51.104Z,100375.91
2017-11-08T02:59:18.652Z,100364.72
2017-11-08T03:01:46.205Z,100353.86
2017-11-08T03:04:13.669Z,100353.99
2017-11-08T03:06:41.155Z,100356.89
2017-11-08T03:09:08.660Z,100361.15
2017-11-08T03:11:36.227Z,100359.95
2017-11-08T03:14:03.698Z,100352.95
2017-11-08T03:16:31.247Z,100353.03
2017-11-08T03:18:58.729Z,100350.73
2017-11-08T03:21:26.266Z,100356.03
2017-11-08T03:23:53.750Z,100355.78
2017-11-08T03:26:21.205Z,100363.42
2017-11-08T03:28:48.685Z,100370.41
2017-11-08T03:31:16.152Z,100359.29
2017-11-08T03:33:43.647Z,100362.70
2017-11-08T03:36:11.113Z,100362.14
2017-11-08T03:38:38.587Z,100358.23
2017-11-08T03:41:06.101Z,100350.91
2017-11-08T03:43:33.680Z,100357.77
2017-11-08T03:46:01.130Z,100361.20
2017-11-08T03:48:28.686Z,100369.10
2017-11-08T03:50:56.140Z,100369.91
2017-11-08T03:53:23.714Z,100375.33
2017-11-08T03:55:51.196Z,100362.20
2017-11-08T03:58:18.648Z,100371.12
2017-11-08T04:00:46.123Z,100373.22
2017-11-08T04:03:13.600Z,100373.19
2017-11-08T04:05:41.089Z,100383.59
2017-11-08T04:08:08.555Z,100386.44
2017-11-08T04:10:36.085Z,100384.84
2017-11-08T04:13:03.553Z,100384.11
2017-11-08T04:15:31.068Z,100388.16
2017-11-08T04:17:58.535Z,100380.16
2017-11-08T04:20:26.039Z,100381.92
2017-11-08T04:22:53.494Z,100374.84
2017-11-08T04:25:20.961Z,100374.42
2017-11-08T04:27:48.470Z,100373.46
2017-11-08T04:30:15.920Z,100369.47
2017-11-08T04:32:43.401Z,100361.04
2017-11-08T04:35:10.880Z,100357.50
2017-11-08T04:37:38.368Z,100362.54
2017-11-08T04:40:05.889Z,100364.63
2017-11-08T04:42:33.361Z,100358.90
2017-11-08T04:45:00.833Z,100360.30
2017-11-08T04:47:28.321Z,100368.25
2017-11-08T04:49:55.781Z,100367.36
2017-11-08T04:52:23.280Z,100360.61
2017-11-08T04:54:50.758Z,100360.23
2017-11-08T04:57:18.262Z,100362.54
2017-11-08T04:59:45.723Z,100369.63
2017-11-08T05:02:13.246Z,100378.84
2017-11-08T05:04:40.716Z,100381.27
2017-11-08T05:07:08.203Z,100388.78
2017-11-08T05:09:35.686Z,100383.36
2017-11-08T05:12:03.157Z,100395.64
2017-11-08T05:14:30.637Z,100397.53
2017-11-08T05:16:58.091Z,100390.88
2017-11-08T05:19:25.617Z,100394.77
2017-11-08T05:21:53.071Z,100387.70
2017-11-08T05:24:20.543Z,100393.86
2017-11-08T05:26:47.996Z,100390.34
2017-11-08T05:29:15.534Z,100398.23
2017-11-08T05:31:42.997Z,100398.45
2017-11-08T05:34:10.472Z,100402.38
2017-11-08T05:36:37.948Z,100404.25
2017-11-08T05:39:05.465Z,100403.42
2017-11-08T05:41:32.945Z,100402.09
2017-11-08T05:44:00.428Z,100403.86
2017-11-08T05:46:27.918Z,100397.23
2017-11-08T05:48:55.383Z,100399.95
2017-11-08T05:51:22.943Z,100404.80
2017-11-08T05:53:50.404Z,100407.95
2017-11-08T05:56:17.895Z,100405.64
2017-11-08T05:58:45.353Z,100404.41
2017-11-08T06:01:12.823Z,100402.56
2017-11-08T06:03:40.337Z,100406.44
2017-11-08T06:06:07.795Z,100403.48
2017-11-08T06:08:35.321Z,100405.38
2017-11-08T06:11:02.775Z,100413.27
2017-11-08T06:13:30.250Z,100417.00
2017-11-08T06:15:57.720Z,100416.98
2017-11-08T06:18:25.199Z,100417.03
2017-11-08T06:20:52.664Z,100424.97
2017-11-08T06:23:20.145Z,100424.48
2017-11-08T06:25:47.604Z,100429.41
2017-11-08T06:28:15.077Z,100426.33
2017-11-08T06:30:42.565Z,100436.80
2017-11-08T06:33:10.047Z,100436.80
2017-11-08T06:35:37.579Z,100437.28
2017-11-08T06:38:05.055Z,100440.02
2017-11-08T06:40:32.541Z,100447.48
2017-11-08T06:43:00.020Z,100450.98
2017-11-08T06:45:27.495Z,100455.41
2017-11-08T06:47:55.060Z,100453.20
2017-11-08T06:50:23.732Z,100450.83
2017-11-08T06:52:51.180Z,100457.05
2017-11-08T06:55:18.668Z,100457.95
2017-11-08T06:57:46.341Z,100458.84
2017-11-08T07:00:13.845Z,100459.18
2017-11-08T07:02:41.342Z,100454.79
2017-11-08T07:05:08.820Z,100456.22
2017-11-08T07:07:36.291Z,100455.77
2017-11-08T07:10:03.813Z,100460.21
2017-11-08T07:12:31.281Z,100463.13
2017-11-08T07:14:58.740Z,100461.41
2017-11-08T07:17:31.183Z,100468.92
2017-11-08T07:19:58.642Z,100469.80
2017-11-08T07:22:26.123Z,100472.41
2017-11-08T07:24:53.589Z,100467.97
2017-11-08T07:27:21.070Z,100472.91
2017-11-08T07:29:48.532Z,100470.02
2017-11-08T07:32:16.030Z,100466.15
2017-11-08T07:34:43.493Z,100475.02
2017-11-08T07:37:10.968Z,100473.95
2017-11-08T07:39:38.427Z,100476.60
2017-11-08T07:42:05.911Z,100489.22
2017-11-08T07:44:33.369Z,100497.23
2017-11-08T07:47:00.893Z,100489.28
2017-11-08T07:49:28.375Z,100495.09
2017-11-08T07:51:56.812Z,100497.79
2017-11-08T07:54:25.058Z,100496.95
2017-11-08T07:56:56.432Z,100495.22
2017-11-08T07:59:25.856Z,100495.70
2017-11-08T08:01:53.393Z,100496.56
2017-11-08T08:04:20.921Z,100495.20
2017-11-08T08:06:48.388Z,100497.46
2017-11-08T08:09:15.860Z,100498.82
2017-11-08T08:11:43.375Z,100497.50
2017-11-08T08:14:10.858Z,100506.66
2017-11-08T08:16:38.321Z,100509.32
2017-11-08T08:19:05.927Z,100504.45
2017-11-08T08:21:33.394Z,100505.52
2017-11-08T08:24:00.872Z,100502.03
2017-11-08T08:26:30.248Z,100501.61
2017-11-08T08:28:57.760Z,100511.47
2017-11-08T08:31:25.216Z,100512.35
2017-11-08T08:33:52.721Z,100502.21
2017-11-08T08:36:20.176Z,100506.71
2017-11-08T08:38:47.641Z,100512.88
2017-11-08T08:41:15.121Z,100510.03
2017-11-08T08:43:42.616Z,100510.99
2017-11-08T08:46:10.097Z,100512.49
2017-11-08T08:48:37.561Z,100515.48
2017-11-08T08:51:05.036Z,100516.81
2017-11-08T08:53:32.487Z,100515.85
2017-11-08T08:55:59.985Z,100509.09
2017-11-08T08:58:27.448Z,100509.97
2017-11-08T09:00:54.950Z,100510.47
2017-11-08T09:03:22.411Z,100507.72
2017-11-08T09:05:49.893Z,100509.11
2017-11-08T09:08:17.384Z,100515.34
2017-11-08T09:10:44.884Z,100518.92
2017-11-08T09:13:12.406Z,100514.48
2017-11-08T09:15:39.873Z,100520.05
2017-11-08T09:18:07.376Z,100523.62
2017-11-08T09:20:34.828Z,100521.82
2017-11-08T09:23:02.299Z,100526.78
2017-11-08T09:25:30.681Z,100534.66
2017-11-08T09:27:58.158Z,100534.69
2017-11-08T09:30:25.648Z,100536.88
2017-11-08T09:32:53.128Z,100528.29
2017-11-08T09:35:24.466Z,100525.19
2017-11-08T09:40:46.749Z,100534.46
2017-11-08T09:43:19.866Z,100542.50
2017-11-08T09:45:47.328Z,100542.25
2017-11-08T09:48:14.887Z,100542.40
2017-11-08T09:50:42.343Z,100545.06
2017-11-08T09:53:09.836Z,100547.57
2017-11-08T09:55:37.386Z,100544.94
2017-11-08T09:58:05.017Z,100550.70
2017-11-08T10:00:32.592Z,100547.04
2017-11-08T10:03:00.064Z,100554.03
2017-11-08T10:05:31.348Z,100554.48
2017-11-08T10:07:58.849Z,100557.21
2017-11-08T10:10:30.297Z,100550.84
2017-11-08T10:13:03.437Z,100558.87
2017-11-08T10:15:30.922Z,100554.55
2017-11-08T10:17:58.385Z,100556.28
2017-11-08T10:20:25.901Z,100559.39
2017-11-08T10:22:53.359Z,100558.75
2017-11-08T10:25:20.868Z,100555.78
2017-11-08T10:27:48.376Z,100563.27
2017-11-08T10:30:15.855Z,100567.28
2017-11-08T10:32:43.449Z,100566.80
2017-11-08T10:35:10.960Z,100567.16
2017-11-08T10:37:38.443Z,100564.15
2017-11-08T10:40:05.947Z,100555.79
2017-11-08T10:42:33.375Z,100551.33
2017-11-08T10:45:00.856Z,100553.16
2017-11-08T10:47:28.342Z,100557.77
2017-11-08T10:49:55.838Z,100552.38
2017-11-08T10:52:23.321Z,100549.90
2017-11-08T10:54:50.810Z,100541.09
2017-11-08T10:57:18.284Z,100536.77
2017-11-08T10:59:51.546Z,100538.84
2017-11-08T11:02:19.940Z,100543.59
2017-11-08T11:04:48.228Z,100549.41
2017-11-08T11:07:15.785Z,100539.16
2017-11-08T11:09:43.298Z,100541.69
2017-11-08T11:12:10.811Z,100537.00
2017-11-08T11:14:38.265Z,100537.63
2017-11-08T11:17:05.747Z,100539.21
2017-11-08T11:19:33.250Z,100542.05
2017-11-08T11:22:01.683Z,100537.87
2017-11-08T11:24:34.017Z,100545.11
2017-11-08T11:27:07.142Z,100540.22
2017-11-08T11:29:34.619Z,100534.27
2017-11-08T11:32:02.125Z,100538.67
2017-11-08T11:34:29.632Z,100547.47
2017-11-08T11:36:57.084Z,100540.95
2017-11-08T11:39:24.607Z,100539.65
2017-11-08T11:41:53.007Z,100542.22
2017-11-08T11:44:20.489Z,100555.75
2017-11-08T11:46:47.992Z,100553.80
2017-11-08T11:49:15.486Z,100549.53
2017-11-08T11:51:42.999Z,100540.89
2017-11-08T11:54:10.478Z,100534.06
2017-11-08T11:56:37.942Z,100539.59
2017-11-08T11:59:05.481Z,100538.53
2017-11-08T12:01:32.948Z,100544.69
2017-11-08T12:04:00.507Z,100539.33
2017-11-08T12:06:27.975Z,100542.62
2017-11-08T12:08:55.509Z,100541.44
2017-11-08T12:11:23.062Z,100546.23
2017-11-08T12:13:51.352Z,100546.34
2017-11-08T12:16:18.849Z,100550.34
2017-11-08T12:18:46.316Z,100554.61
2017-11-08T12:21:13.793Z,100552.55
2017-11-08T12:23:41.272Z,100560.94
2017-11-08T12:26:08.923Z,100560.66
2017-11-08T12:28:45.070Z,100560.86
2017-11-08T12:31:12.547Z,100560.60
2017-11-08T12:33:40.083Z,100565.50
2017-11-08T12:36:07.583Z,100560.12
2017-11-08T12:38:38.040Z,100563.25
2017-11-08T12:41:05.658Z,100568.85
2017-11-08T12:43:33.200Z,100565.34
2017-11-08T12:46:00.698Z,100565.78
2017-11-08T12:48:28.200Z,100564.34
2017-11-08T12:50:55.730Z,100567.80
2017-11-08T12:53:23.206Z,100572.66
2017-11-08T12:55:50.743Z,100572.67
2017-11-08T12:58:18.281Z,100575.70
2017-11-08T13:00:45.829Z,100578.94
2017-11-08T13:03:13.312Z,100579.70
2017-11-08T13:05:41.597Z,100580.14
2017-11-08T13:08:09.118Z,100576.23
2017-11-08T13:10:42.222Z,100585.46
2017-11-08T13:13:09.705Z,100590.19
2017-11-08T13:15:37.185Z,100588.09
2017-11-08T13:18:04.670Z,100594.20
2017-11-08T13:20:32.131Z,100590.49
2017-11-08T13:22:59.609Z,100588.16
2017-11-08T13:25:27.075Z,100590.83
2017-11-08T13:27:54.562Z,100600.18
2017-11-08T13:30:22.021Z,100586.08
2017-11-08T13:32:49.538Z,100590.17
2017-11-08T13:35:17.001Z,100594.72
2017-11-08T13:37:44.502Z,100596.76
2017-11-08T13:40:13.754Z,100596.64
2017-11-08T13:42:41.248Z,100595.56
2017-11-08T13:45:09.661Z,100596.24
2017-11-08T13:47:37.125Z,100596.50
2017-11-08T13:50:04.604Z,100602.05
2017-11-08T13:52:32.068Z,100607.92
2017-11-08T13:54:59.598Z,100611.66
2017-11-08T13:57:27.071Z,100617.44
2017-11-08T13:59:54.553Z,100629.61
2017-11-08T14:02:22.018Z,100628.73
2017-11-08T14:04:49.502Z,100632.64
2017-11-08T14:07:16.956Z,100631.79
2017-11-08T14:09:44.444Z,100633.05
2017-11-08T14:12:11.897Z,100632.64
2017-11-08T14:14:39.349Z,100633.51
2017-11-08T14:17:06.828Z,100633.59
2017-11-08T14:19:34.280Z,100637.20
2017-11-08T14:22:01.761Z,100642.86
2017-11-08T14:24:29.300Z,100640.13
2017-11-08T14:26:56.776Z,100644.48
2017-11-08T14:29:24.236Z,100649.41
2017-11-08T14:31:51.794Z,100643.09
2017-11-08T14:34:19.262Z,100645.73
2017-11-08T14:36:48.538Z,100648.92
2017-11-08T14:39:16.019Z,100651.63
2017-11-08T14:41:49.119Z,100652.88
2017-11-08T14:44:16.576Z,100652.95
2017-11-08T14:46:44.082Z,100654.63
2017-11-08T14:49:11.553Z,100654.68
2017-11-08T14:51:39.110Z,100654.24
2017-11-08T14:54:07.399Z,100658.27
2017-11-08T14:56:34.926Z,100657.81
2017-11-08T14:59:02.505Z,100660.91
2017-11-08T15:01:30.001Z,100665.86
2017-11-08T15:03:57.538Z,100662.77
2017-11-08T15:06:24.999Z,100660.56
2017-11-08T15:08:52.481Z,100661.80
2017-11-08T15:11:20.094Z,100667.06
2017-11-08T15:13:47.572Z,100669.69
2017-11-08T15:16:15.035Z,100669.22
2017-11-08T15:18:42.550Z,100669.66
2017-11-08T15:21:10.015Z,100672.38
2017-11-08T15:23:37.548Z,100674.05
2017-11-08T15:26:05.030Z,100672.79
2017-11-08T15:28:32.547Z,100680.81
2017-11-08T15:31:00.016Z,100674.92
2017-11-08T15:33:27.489Z,100679.44
2017-11-08T15:35:54.949Z,100683.38
2017-11-08T15:38:22.513Z,100673.48
2017-11-08T15:40:49.977Z,100678.36
2017-11-08T15:43:19.432Z,100679.66
2017-11-08T15:45:46.936Z,100683.30
2017-11-08T15:48:14.510Z,100683.34
2017-11-08T15:50:42.017Z,100689.94
2017-11-08T15:53:09.505Z,100690.28
2017-11-08T15:55:37.008Z,100697.80
2017-11-08T15:58:04.488Z,100699.23
2017-11-08T16:00:31.961Z,100702.87
2017-11-08T16:02:59.417Z,100697.11
2017-11-08T16:05:26.914Z,100703.30
2017-11-08T16:07:54.390Z,100707.84
2017-11-08T16:10:21.879Z,100707.41
2017-11-08T16:12:51.209Z,100710.16
2017-11-08T16:15:18.705Z,100718.45
2017-11-08T16:17:52.758Z,100709.59
2017-11-08T16:20:20.236Z,100709.52
2017-11-08T16:22:47.698Z,100716.59
2017-11-08T16:25:15.154Z,100700.72
2017-11-08T16:27:42.657Z,100713.59
2017-11-08T16:30:10.154Z,100706.50
2017-11-08T16:32:37.649Z,100719.30
2017-11-08T16:35:05.118Z,100716.67
2017-11-08T16:37:32.652Z,100721.06
2017-11-08T16:40:00.096Z,100724.65
2017-11-08T16:42:27.657Z,100720.22
2017-11-08T16:44:55.117Z,100722.41
2017-11-08T16:47:22.672Z,100725.52
2017-11-08T16:49:50.243Z,100724.19
2017-11-08T16:52:17.779Z,100729.33
2017-11-08T16:54:45.288Z,100731.28
2017-11-08T16:57:12.783Z,100734.04
2017-11-08T16:59:40.248Z,100731.48
2017-11-08T17:02:07.755Z,100736.25
2017-11-08T17:04:35.245Z,100742.41
2017-11-08T17:07:02.724Z,100740.31
2017-11-08T17:09:30.217Z,100738.52
2017-11-08T17:11:57.702Z,100743.84
2017-11-08T17:14:25.190Z,100737.67
2017-11-08T17:16:52.711Z,100739.00
2017-11-08T17:19:20.219Z,100742.52
2017-11-08T17:21:47.698Z,100737.67
2017-11-08T17:24:15.235Z,100738.55
2017-11-08T17:26:42.800Z,100736.32
2017-11-08T17:29:16.824Z,100732.78
2017-11-08T17:31:44.295Z,100730.95
2017-11-08T17:34:11.825Z,100737.27
2017-11-08T17:36:39.376Z,100740.73
2017-11-08T17:39:06.925Z,100751.80
2017-11-08T17:41:34.400Z,100756.77
2017-11-08T17:44:01.913Z,100763.08
2017-11-08T17:46:29.390Z,100765.16
2017-11-08T17:48:56.850Z,100766.42
2017-11-08T17:51:24.343Z,100771.28
2017-11-08T17:53:51.822Z,100768.13
2017-11-08T17:56:19.301Z,100767.80
2017-11-08T17:58:46.784Z,100768.95
2017-11-08T18:01:14.278Z,100774.95
2017-11-08T18:03:41.798Z,100777.36
2017-11-08T18:06:09.276Z,100776.15
2017-11-08T18:08:36.733Z,100772.39
2017-11-08T18:11:04.271Z,100773.53
2017-11-08T18:13:31.739Z,100773.42
2017-11-08T18:15:59.302Z,100780.80
2017-11-08T18:18:26.799Z,100781.26
2017-11-08T18:20:54.300Z,100776.16
2017-11-08T18:23:21.820Z,100785.45
2017-11-08T18:25:49.323Z,100791.17
2017-11-08T18:28:16.825Z,100792.60
2017-11-08T18:30:44.288Z,100799.10
2017-11-08T18:33:11.788Z,100796.82
2017-11-08T18:35:39.361Z,100800.83
2017-11-08T18:38:06.856Z,100791.11
2017-11-08T18:40:34.314Z,100791.69
2017-11-08T18:43:01.802Z,100793.39
2017-11-08T18:45:29.275Z,100792.02
2017-11-08T18:47:56.760Z,100801.47
2017-11-08T18:50:24.284Z,100796.75
2017-11-08T18:52:51.778Z,100797.20
2017-11-08T18:55:19.696Z,100798.44
2017-11-08T18:57:47.206Z,100805.67
2017-11-08T19:00:14.718Z,100801.86
2017-11-08T19:02:42.288Z,100809.71
2017-11-08T19:05:09.751Z,100802.65
2017-11-08T19:07:37.242Z,100811.08
2017-11-08T19:10:04.712Z,100809.56
2017-11-08T19:12:32.190Z,100814.20
2017-11-08T19:14:59.672Z,100818.52
2017-11-08T19:17:27.151Z,100825.97
2017-11-08T19:19:54.621Z,100820.89
2017-11-08T19:22:22.125Z,100816.03
2017-11-08T19:24:49.714Z,100822.21
2017-11-08T19:27:17.176Z,100825.97
2017-11-08T19:29:44.656Z,100824.78
2017-11-08T19:32:12.124Z,100826.13
2017-11-08T19:34:39.615Z,100833.00
2017-11-08T19:37:07.077Z,100835.02
2017-11-08T19:39:34.571Z,100837.70
2017-11-08T19:42:02.097Z,100837.89
2017-11-08T19:44:29.605Z,100840.03
2017-11-08T19:46:57.169Z,100838.20
2017-11-08T19:49:24.653Z,100834.60
2017-11-08T19:51:52.148Z,100839.82
2017-11-08T19:54:19.691Z,100837.64
2017-11-08T19:56:47.170Z,100843.84
2017-11-08T19:59:14.711Z,100841.83
2017-11-08T20:01:42.272Z,100843.80
2017-11-08T20:04:09.835Z,100847.84
2017-11-08T20:06:37.318Z,100852.09
2017-11-08T20:09:04.778Z,100851.09
2017-11-08T20:11:32.254Z,100855.29
2017-11-08T20:13:59.709Z,100854.14
2017-11-08T20:16:27.197Z,100854.72
2017-11-08T20:18:54.650Z,100856.47
2017-11-08T20:21:22.149Z,100854.27
2017-11-08T20:23:49.696Z,100860.08
2017-11-08T20:26:17.175Z,100856.39
2017-11-08T20:28:44.699Z,100854.84
2017-11-08T20:31:12.189Z,100859.95
2017-11-08T20:33:39.636Z,100864.17
2017-11-08T20:36:07.163Z,100868.16
2017-11-08T20:38:34.620Z,100858.70
2017-11-08T20:41:02.078Z,100860.80
2017-11-08T20:43:29.566Z,100866.34
2017-11-08T20:45:57.045Z,100866.90
2017-11-08T20:48:24.567Z,100867.67
2017-11-08T20:50:52.119Z,100862.81
2017-11-08T20:53:19.726Z,100867.25
2017-11-08T20:55:47.198Z,100864.59
2017-11-08T20:58:14.672Z,100865.55
2017-11-08T21:00:42.158Z,100867.54
2017-11-08T21:03:09.702Z,100859.63
2017-11-08T21:05:37.158Z,100861.08
2017-11-08T21:08:04.687Z,100861.30
2017-11-08T21:10:32.168Z,100867.37
2017-11-08T21:12:59.643Z,100864.50
2017-11-08T21:15:27.097Z,100861.08
2017-11-08T21:17:54.587Z,100866.00
2017-11-08T21:20:22.100Z,100871.29
2017-11-08T21:22:49.557Z,100872.13
2017-11-08T21:25:17.068Z,100872.14
2017-11-08T21:27:44.523Z,100871.13
2017-11-08T21:30:12.002Z,100874.57
2017-11-08T21:32:39.579Z,100870.19
2017-11-08T21:35:07.077Z,100872.92
2017-11-08T21:37:34.538Z,100867.18
2017-11-08T21:40:02.027Z,100867.25
2017-11-08T21:42:29.476Z,100864.19
2017-11-08T21:44:56.979Z,100863.33
2017-11-08T21:47:24.582Z,100868.52
2017-11-08T21:49:52.152Z,100861.11
2017-11-08T21:52:19.601Z,100866.84
2017-11-08T21:54:47.113Z,100871.54
2017-11-08T21:57:14.573Z,100862.75
2017-11-08T21:59:42.149Z,100868.61
2017-11-08T22:02:09.635Z,100870.65
2017-11-08T22:04:37.104Z,100873.56
2017-11-08T22:07:04.593Z,100876.19
2017-11-08T22:09:32.250Z,100875.73
2017-11-08T22:11:59.725Z,100883.09
2017-11-08T22:14:27.181Z,100882.08
2017-11-08T22:16:54.731Z,100878.58
2017-11-08T22:19:22.198Z,100885.18
2017-11-08T22:21:49.701Z,100885.83
2017-11-08T22:24:17.171Z,100885.78
2017-11-08T22:26:44.662Z,100888.05
2017-11-08T22:29:12.159Z,100888.05
2017-11-08T22:31:39.625Z,100885.53
2017-11-08T22:34:07.118Z,100888.38
2017-11-08T22:36:34.586Z,100881.83
2017-11-08T22:39:05.894Z,100884.77
2017-11-08T22:41:33.368Z,100884.44
2017-11-08T22:44:00.939Z,100886.67
2017-11-08T22:46:28.508Z,100879.38
2017-11-08T22:48:56.029Z,100889.89
2017-11-08T22:51:23.881Z,100894.98
2017-11-08T22:53:51.374Z,100891.33
2017-11-08T22:56:18.836Z,100891.89
2017-11-08T22:58:46.321Z,100891.88
2017-11-08T23:01:13.799Z,100894.59
2017-11-08T23:03:41.929Z,100895.94
2017-11-08T23:06:09.395Z,100900.20
2017-11-08T23:08:36.886Z,100902.47
2017-11-08T23:11:04.401Z,100902.89
2017-11-08T23:13:31.914Z,100897.70
2017-11-08T23:15:59.427Z,100896.80
2017-11-08T23:18:26.894Z,100895.98
2017-11-08T23:20:54.379Z,100899.28
2017-11-08T23:23:21.847Z,100901.05
2017-11-08T23:25:50.169Z,100898.05
2017-11-08T23:28:17.620Z,100899.52
2017-11-08T23:30:45.160Z,100907.48
2017-11-08T23:33:12.613Z,100909.69
2017-11-08T23:35:40.093Z,100910.58
2017-11-08T23:38:07.558Z,100910.61
2017-11-08T23:40:35.045Z,100909.80
2017-11-08T23:43:02.496Z,100912.95
2017-11-08T23:45:29.981Z,100912.50
2017-11-08T23:47:57.482Z,100907.20
2017-11-08T23:50:25.036Z,100912.86
2017-11-08T23:52:52.619Z,100911.52
2017-11-08T23:55:20.829Z,100912.78
2017-11-08T23:57:48.339Z,100915.01
